sensor_id;sensor_type;location;lat;lon;timestamp;pressure;altitude;pressure_sealevel;temperature;humidity
14117;BME280;7137;51.436;6.544;2022-12-10T00:00:34;100401.50;;;-0.13;97.65
14117;BME280;7137;51.436;6.544;2022-12-10T00:03:36;100411.72;;;-0.15;97.66
14117;BME280;7137;51.436;6.544;2022-12-10T00:06:39;100408.28;;;-0.17;98.17
14117;BME280;7137;51.436;6.544;2022-12-10T00:09:42;100414.28;;;-0.18;98.17
14117;BME280;7137;51.436;6.544;2022-12-10T00:12:43;100408.28;;;-0.21;98.20
14117;BME280;7137;51.436;6.544;2022-12-10T00:15:46;100408.25;;;-0.24;97.69
14117;BME280;7137;51.436;6.544;2022-12-10T00:18:48;100409.06;;;-0.30;98.01
14117;BME280;7137;51.436;6.544;2022-12-10T00:21:50;100413.31;;;-0.31;98.20
14117;BME280;7137;51.436;6.544;2022-12-10T00:24:52;100414.16;;;-0.33;97.63
14117;BME280;7137;51.436;6.544;2022-12-10T00:27:53;100415.03;;;-0.34;97.74
14117;BME280;7137;51.436;6.544;2022-12-10T00:31:01;100415.00;;;-0.37;98.25
14117;BME280;7137;51.436;6.544;2022-12-10T00:34:05;100414.13;;;-0.39;98.28
14117;BME280;7137;51.436;6.544;2022-12-10T00:37:07;100421.84;;;-0.38;98.07
14117;BME280;7137;51.436;6.544;2022-12-10T00:40:10;100421.81;;;-0.42;97.93
14117;BME280;7137;51.436;6.544;2022-12-10T00:43:11;100426.88;;;-0.47;98.00
14117;BME280;7137;51.436;6.544;2022-12-10T00:46:15;100431.16;;;-0.49;98.35
14117;BME280;7137;51.436;6.544;2022-12-10T00:49:17;100414.91;;;-0.49;98.18
14117;BME280;7137;51.436;6.544;2022-12-10T00:52:23;100416.59;;;-0.53;98.14
14117;BME280;7137;51.436;6.544;2022-12-10T00:55:24;100416.56;;;-0.54;98.37
14117;BME280;7137;51.436;6.544;2022-12-10T00:58:27;100426.00;;;-0.53;98.51
14117;BME280;7137;51.436;6.544;2022-12-10T01:01:32;100424.28;;;-0.54;98.58
14117;BME280;7137;51.436;6.544;2022-12-10T01:04:34;100422.59;;;-0.49;98.95
14117;BME280;7137;51.436;6.544;2022-12-10T01:07:36;100424.31;;;-0.48;98.73
14117;BME280;7137;51.436;6.544;2022-12-10T01:10:38;100426.03;;;-0.46;98.42
14117;BME280;7137;51.436;6.544;2022-12-10T01:13:40;100420.91;;;-0.44;98.10
14117;BME280;7137;51.436;6.544;2022-12-10T01:16:43;100414.13;;;-0.42;97.91
14117;BME280;7137;51.436;6.544;2022-12-10T01:19:46;100418.34;;;-0.44;97.67
14117;BME280;7137;51.436;6.544;2022-12-10T01:22:47;100421.75;;;-0.47;97.24
14117;BME280;7137;51.436;6.544;2022-12-10T01:25:49;100425.25;;;-0.42;96.48
14117;BME280;7137;51.436;6.544;2022-12-10T01:28:51;100430.28;;;-0.48;95.96
14117;BME280;7137;51.436;6.544;2022-12-10T01:31:56;100442.22;;;-0.53;95.96
14117;BME280;7137;51.436;6.544;2022-12-10T01:34:58;100439.56;;;-0.64;96.57
14117;BME280;7137;51.436;6.544;2022-12-10T01:37:59;100432.63;;;-0.72;97.21
14117;BME280;7137;51.436;6.544;2022-12-10T01:41:01;100446.28;;;-0.76;97.68
14117;BME280;7137;51.436;6.544;2022-12-10T01:44:53;100446.25;;;-0.79;97.76
14117;BME280;7137;51.436;6.544;2022-12-10T01:47:28;100447.94;;;-0.81;97.47
14117;BME280;7137;51.436;6.544;2022-12-10T01:50:29;100453.06;;;-0.81;97.16
14117;BME280;7137;51.436;6.544;2022-12-10T01:53:31;100450.50;;;-0.83;97.57
14117;BME280;7137;51.436;6.544;2022-12-10T01:56:36;100453.81;;;-0.90;98.18
14117;BME280;7137;51.436;6.544;2022-12-10T01:59:40;100455.50;;;-0.92;98.03
14117;BME280;7137;51.436;6.544;2022-12-10T02:02:49;100453.78;;;-0.93;98.12
14117;BME280;7137;51.436;6.544;2022-12-10T02:06:00;100456.38;;;-0.90;98.96
14117;BME280;7137;51.436;6.544;2022-12-10T02:09:09;100469.31;;;-0.79;99.52
14117;BME280;7137;51.436;6.544;2022-12-10T02:12:16;100470.31;;;-0.68;99.25
14117;BME280;7137;51.436;6.544;2022-12-10T02:15:24;100467.78;;;-0.61;98.31
14117;BME280;7137;51.436;6.544;2022-12-10T02:18:31;100468.66;;;-0.58;97.91
14117;BME280;7137;51.436;6.544;2022-12-10T02:21:39;100456.66;;;-0.64;97.64
14117;BME280;7137;51.436;6.544;2022-12-10T02:24:42;100455.72;;;-0.71;97.38
14117;BME280;7137;51.436;6.544;2022-12-10T02:27:48;100453.13;;;-0.75;97.78
14117;BME280;7137;51.436;6.544;2022-12-10T02:30:55;100460.81;;;-0.74;98.24
14117;BME280;7137;51.436;6.544;2022-12-10T02:34:00;100453.13;;;-0.74;97.77
14117;BME280;7137;51.436;6.544;2022-12-10T02:49:14;100449.69;;;-0.79;98.30
14117;BME280;7137;51.436;6.544;2022-12-10T02:52:19;100457.28;;;-0.85;98.63
14117;BME280;7137;51.436;6.544;2022-12-10T02:55:21;100458.19;;;-0.84;98.35
14117;BME280;7137;51.436;6.544;2022-12-10T02:58:28;100458.19;;;-0.83;98.45
14117;BME280;7137;51.436;6.544;2022-12-10T03:01:41;100462.41;;;-0.85;98.42
14117;BME280;7137;51.436;6.544;2022-12-10T03:04:52;100461.50;;;-0.90;98.05
14117;BME280;7137;51.436;6.544;2022-12-10T03:08:00;100459.78;;;-0.94;98.58
14117;BME280;7137;51.436;6.544;2022-12-10T03:11:09;100476.94;;;-0.85;98.43
14117;BME280;7137;51.436;6.544;2022-12-10T03:14:14;100469.38;;;-0.73;98.72
14117;BME280;7137;51.436;6.544;2022-12-10T03:17:17;100474.63;;;-0.63;98.75
14117;BME280;7137;51.436;6.544;2022-12-10T03:20:22;100468.75;;;-0.49;98.77
14117;BME280;7137;51.436;6.544;2022-12-10T03:23:26;100468.00;;;-0.41;98.43
14117;BME280;7137;51.436;6.544;2022-12-10T03:26:29;100466.31;;;-0.37;97.90
14117;BME280;7137;51.436;6.544;2022-12-10T03:29:34;100471.44;;;-0.40;97.92
14117;BME280;7137;51.436;6.544;2022-12-10T03:32:37;100471.34;;;-0.45;97.31
14117;BME280;7137;51.436;6.544;2022-12-10T03:35:40;100467.00;;;-0.55;97.02
14117;BME280;7137;51.436;6.544;2022-12-10T03:38:43;100466.88;;;-0.67;97.28
14117;BME280;7137;51.436;6.544;2022-12-10T03:41:44;100473.66;;;-0.71;97.43
14117;BME280;7137;51.436;6.544;2022-12-10T03:44:49;100485.59;;;-0.76;97.93
14117;BME280;7137;51.436;6.544;2022-12-10T03:47:51;100480.47;;;-0.74;97.59
14117;BME280;7137;51.436;6.544;2022-12-10T03:50:54;100477.94;;;-0.71;98.20
14117;BME280;7137;51.436;6.544;2022-12-10T03:53:56;100474.56;;;-0.70;97.71
14117;BME280;7137;51.436;6.544;2022-12-10T03:56:57;100478.88;;;-0.63;97.55
14117;BME280;7137;51.436;6.544;2022-12-10T03:59:59;100476.28;;;-0.68;97.58
14117;BME280;7137;51.436;6.544;2022-12-10T04:03:00;100478.88;;;-0.65;98.19
14117;BME280;7137;51.436;6.544;2022-12-10T04:06:09;100478.06;;;-0.61;97.87
14117;BME280;7137;51.436;6.544;2022-12-10T04:09:13;100478.13;;;-0.56;98.00
14117;BME280;7137;51.436;6.544;2022-12-10T04:12:14;100492.69;;;-0.52;98.21
14117;BME280;7137;51.436;6.544;2022-12-10T04:15:16;100485.88;;;-0.45;98.16
14117;BME280;7137;51.436;6.544;2022-12-10T04:18:35;100485.03;;;-0.47;97.84
14117;BME280;7137;51.436;6.544;2022-12-10T04:21:39;100484.13;;;-0.52;97.15
14117;BME280;7137;51.436;6.544;2022-12-10T04:24:58;100485.72;;;-0.62;97.50
14117;BME280;7137;51.436;6.544;2022-12-10T04:28:22;100477.06;;;-0.75;97.95
14117;BME280;7137;51.436;6.544;2022-12-10T04:31:24;100470.16;;;-0.80;97.61
14117;BME280;7137;51.436;6.544;2022-12-10T04:34:25;100477.75;;;-0.88;97.47
14117;BME280;7137;51.436;6.544;2022-12-10T04:37:29;100475.13;;;-0.96;97.83
14117;BME280;7137;51.436;6.544;2022-12-10T04:40:30;100479.28;;;-1.07;98.35
14117;BME280;7137;51.436;6.544;2022-12-10T04:43:32;100475.81;;;-1.10;98.37
14117;BME280;7137;51.436;6.544;2022-12-10T04:46:33;100475.75;;;-1.15;98.99
14117;BME280;7137;51.436;6.544;2022-12-10T04:49:36;100479.97;;;-1.18;99.05
14117;BME280;7137;51.436;6.544;2022-12-10T04:52:39;100475.69;;;-1.21;98.64
14117;BME280;7137;51.436;6.544;2022-12-10T04:55:40;100469.72;;;-1.20;98.28
14117;BME280;7137;51.436;6.544;2022-12-10T04:58:42;100473.94;;;-1.25;98.63
14117;BME280;7137;51.436;6.544;2022-12-10T05:01:43;100481.59;;;-1.27;98.81
14117;BME280;7137;51.436;6.544;2022-12-10T05:04:45;100478.97;;;-1.31;98.60
14117;BME280;7137;51.436;6.544;2022-12-10T05:07:50;100478.94;;;-1.34;98.57
14117;BME280;7137;51.436;6.544;2022-12-10T05:10:52;100486.59;;;-1.36;98.57
14117;BME280;7137;51.436;6.544;2022-12-10T05:13:54;100498.56;;;-1.35;98.47
14117;BME280;7137;51.436;6.544;2022-12-10T05:16:56;100489.16;;;-1.36;98.29
14117;BME280;7137;51.436;6.544;2022-12-10T05:19:57;100490.91;;;-1.33;98.26
14117;BME280;7137;51.436;6.544;2022-12-10T05:23:00;100491.69;;;-1.39;98.21
14117;BME280;7137;51.436;6.544;2022-12-10T05:26:20;100492.47;;;-1.41;97.94
14117;BME280;7137;51.436;6.544;2022-12-10T05:29:22;100489.97;;;-1.40;98.20
14117;BME280;7137;51.436;6.544;2022-12-10T05:32:24;100496.81;;;-1.39;98.33
14117;BME280;7137;51.436;6.544;2022-12-10T05:35:25;100497.69;;;-1.37;98.55
14117;BME280;7137;51.436;6.544;2022-12-10T05:38:30;100490.88;;;-1.35;98.31
14117;BME280;7137;51.436;6.544;2022-12-10T05:41:35;100496.00;;;-1.35;97.83
14117;BME280;7137;51.436;6.544;2022-12-10T05:44:38;100502.88;;;-1.31;98.25
14117;BME280;7137;51.436;6.544;2022-12-10T05:47:39;100502.81;;;-1.35;98.74
14117;BME280;7137;51.436;6.544;2022-12-10T05:50:41;100504.53;;;-1.34;98.91
14117;BME280;7137;51.436;6.544;2022-12-10T05:53:44;100505.38;;;-1.35;98.87
14117;BME280;7137;51.436;6.544;2022-12-10T05:56:46;100496.78;;;-1.40;98.99
14117;BME280;7137;51.436;6.544;2022-12-10T05:59:49;100506.16;;;-1.41;98.74
14117;BME280;7137;51.436;6.544;2022-12-10T06:02:50;100512.09;;;-1.43;98.68
14117;BME280;7137;51.436;6.544;2022-12-10T06:05:53;100512.94;;;-1.43;99.43
14117;BME280;7137;51.436;6.544;2022-12-10T06:08:57;100516.38;;;-1.41;99.56
14117;BME280;7137;51.436;6.544;2022-12-10T06:11:59;100514.81;;;-1.33;99.52
14117;BME280;7137;51.436;6.544;2022-12-10T06:15:00;100521.69;;;-1.27;99.41
14117;BME280;7137;51.436;6.544;2022-12-10T06:18:02;100530.41;;;-1.16;99.74
14117;BME280;7137;51.436;6.544;2022-12-10T06:21:04;100522.88;;;-1.04;99.69
14117;BME280;7137;51.436;6.544;2022-12-10T06:24:07;100517.88;;;-0.93;99.24
14117;BME280;7137;51.436;6.544;2022-12-10T06:27:09;100518.84;;;-0.83;99.06
14117;BME280;7137;51.436;6.544;2022-12-10T06:34:07;100524.22;;;-0.59;98.36
14117;BME280;7137;51.436;6.544;2022-12-10T06:37:09;100528.63;;;-0.49;98.56
14117;BME280;7137;51.436;6.544;2022-12-10T06:40:12;100529.44;;;-0.54;99.86
14117;BME280;7137;51.436;6.544;2022-12-10T06:43:14;100527.59;;;-0.66;100.00
14117;BME280;7137;51.436;6.544;2022-12-10T06:46:17;100532.00;;;-0.53;100.00
14117;BME280;7137;51.436;6.544;2022-12-10T06:49:20;100539.88;;;-0.33;100.00
14117;BME280;7137;51.436;6.544;2022-12-10T06:52:21;100546.66;;;-0.41;100.00
14117;BME280;7137;51.436;6.544;2022-12-10T06:55:24;100548.44;;;-0.31;100.00
14117;BME280;7137;51.436;6.544;2022-12-10T06:58:26;100548.38;;;-0.42;99.79
14117;BME280;7137;51.436;6.544;2022-12-10T07:01:28;100549.16;;;-0.47;99.87
14117;BME280;7137;51.436;6.544;2022-12-10T07:04:30;100545.75;;;-0.45;100.00
14117;BME280;7137;51.436;6.544;2022-12-10T07:07:31;100546.00;;;-0.20;100.00
14117;BME280;7137;51.436;6.544;2022-12-10T07:10:36;100553.59;;;-0.30;98.85
14117;BME280;7137;51.436;6.544;2022-12-10T07:13:38;100547.59;;;-0.30;100.00
14117;BME280;7137;51.436;6.544;2022-12-10T07:16:40;100559.06;;;0.06;98.21
14117;BME280;7137;51.436;6.544;2022-12-10T07:19:41;100553.72;;;-0.16;99.40
14117;BME280;7137;51.436;6.544;2022-12-10T07:22:43;100558.00;;;-0.16;100.00
14117;BME280;7137;51.436;6.544;2022-12-10T07:25:46;100563.91;;;-0.26;100.00
14117;BME280;7137;51.436;6.544;2022-12-10T07:28:47;100559.81;;;-0.06;100.00
14117;BME280;7137;51.436;6.544;2022-12-10T07:31:49;100568.38;;;-0.06;100.00
14117;BME280;7137;51.436;6.544;2022-12-10T07:34:51;100564.22;;;0.07;99.44
14117;BME280;7137;51.436;6.544;2022-12-10T07:37:52;100570.78;;;-0.22;99.66
14117;BME280;7137;51.436;6.544;2022-12-10T07:40:55;100572.50;;;-0.21;100.00
14117;BME280;7137;51.436;6.544;2022-12-10T07:43:56;100582.06;;;-0.07;100.00
14117;BME280;7137;51.436;6.544;2022-12-10T07:46:58;100576.03;;;-0.10;100.00
14117;BME280;7137;51.436;6.544;2022-12-10T07:49:59;100582.22;;;0.10;100.00
14117;BME280;7137;51.436;6.544;2022-12-10T07:53:01;100583.25;;;0.32;99.13
14117;BME280;7137;51.436;6.544;2022-12-10T07:56:05;100583.94;;;0.11;99.98
14117;BME280;7137;51.436;6.544;2022-12-10T07:59:09;100585.63;;;0.08;99.76
14117;BME280;7137;51.436;6.544;2022-12-10T08:02:10;100592.56;;;0.19;99.80
14117;BME280;7137;51.436;6.544;2022-12-10T08:05:12;100591.00;;;0.38;97.84
14117;BME280;7137;51.436;6.544;2022-12-10T08:08:14;100590.13;;;0.36;97.96
14117;BME280;7137;51.436;6.544;2022-12-10T08:11:18;100588.34;;;0.27;97.80
14117;BME280;7137;51.436;6.544;2022-12-10T08:14:20;100591.09;;;0.47;99.28
14117;BME280;7137;51.436;6.544;2022-12-10T08:17:21;100599.56;;;0.39;98.38
14117;BME280;7137;51.436;6.544;2022-12-10T08:20:24;100603.84;;;0.41;98.89
14117;BME280;7137;51.436;6.544;2022-12-10T08:23:25;100604.88;;;0.58;97.78
14117;BME280;7137;51.436;6.544;2022-12-10T08:26:30;100614.31;;;0.61;96.98
14117;BME280;7137;51.436;6.544;2022-12-10T08:29:32;100609.84;;;0.40;98.18
14117;BME280;7137;51.436;6.544;2022-12-10T08:32:33;100606.50;;;0.49;98.01
14117;BME280;7137;51.436;6.544;2022-12-10T08:35:35;100610.88;;;0.61;98.58
14117;BME280;7137;51.436;6.544;2022-12-10T08:38:39;100618.63;;;0.68;99.15
14117;BME280;7137;51.436;6.544;2022-12-10T08:41:42;100628.84;;;0.57;97.69
14117;BME280;7137;51.436;6.544;2022-12-10T08:44:44;100623.63;;;0.48;98.63
14117;BME280;7137;51.436;6.544;2022-12-10T08:47:46;100626.28;;;0.59;98.87
14117;BME280;7137;51.436;6.544;2022-12-10T08:50:47;100642.44;;;0.44;99.48
14117;BME280;7137;51.436;6.544;2022-12-10T08:53:49;100646.88;;;0.64;96.68
14117;BME280;7137;51.436;6.544;2022-12-10T08:56:52;100640.56;;;0.26;98.08
14117;BME280;7137;51.436;6.544;2022-12-10T08:59:53;100652.78;;;0.53;98.16
14117;BME280;7137;51.436;6.544;2022-12-10T09:02:55;100655.34;;;0.55;98.30
14117;BME280;7137;51.436;6.544;2022-12-10T09:05:56;100658.03;;;0.70;97.25
14117;BME280;7137;51.436;6.544;2022-12-10T09:09:02;100659.09;;;0.95;96.42
14117;BME280;7137;51.436;6.544;2022-12-10T09:12:06;100673.34;;;0.53;95.44
14117;BME280;7137;51.436;6.544;2022-12-10T09:15:09;100668.25;;;0.58;96.90
14117;BME280;7137;51.436;6.544;2022-12-10T09:18:10;100669.19;;;0.69;96.57
14117;BME280;7137;51.436;6.544;2022-12-10T09:21:14;100674.50;;;0.92;96.63
14117;BME280;7137;51.436;6.544;2022-12-10T09:24:16;100668.59;;;1.07;96.73
14117;BME280;7137;51.436;6.544;2022-12-10T09:27:19;100678.03;;;1.11;95.63
14117;BME280;7137;51.436;6.544;2022-12-10T09:30:20;100682.41;;;1.26;94.38
14117;BME280;7137;51.436;6.544;2022-12-10T09:33:22;100681.63;;;1.39;92.98
14117;BME280;7137;51.436;6.544;2022-12-10T09:36:24;100680.66;;;1.17;93.38
14117;BME280;7137;51.436;6.544;2022-12-10T09:39:26;100695.22;;;1.13;94.16
14117;BME280;7137;51.436;6.544;2022-12-10T09:42:41;100695.28;;;1.24;93.18
14117;BME280;7137;51.436;6.544;2022-12-10T09:45:55;100683.28;;;1.26;93.93
14117;BME280;7137;51.436;6.544;2022-12-10T09:49:06;100687.59;;;1.30;93.73
14117;BME280;7137;51.436;6.544;2022-12-10T09:52:14;100690.91;;;1.09;95.00
14117;BME280;7137;51.436;6.544;2022-12-10T09:55:20;100686.66;;;1.14;95.03
14117;BME280;7137;51.436;6.544;2022-12-10T09:58:26;100686.75;;;1.31;94.82
14117;BME280;7137;51.436;6.544;2022-12-10T10:01:29;100683.41;;;1.54;93.22
14117;BME280;7137;51.436;6.544;2022-12-10T10:04:33;100678.28;;;1.52;92.71
14117;BME280;7137;51.436;6.544;2022-12-10T10:07:38;100676.53;;;1.48;92.64
14117;BME280;7137;51.436;6.544;2022-12-10T10:10:44;100683.47;;;1.66;92.43
14117;BME280;7137;51.436;6.544;2022-12-10T10:13:51;100678.34;;;1.66;90.24
14117;BME280;7137;51.436;6.544;2022-12-10T10:16:57;100684.28;;;1.51;92.65
14117;BME280;7137;51.436;6.544;2022-12-10T10:20:01;100680.91;;;1.64;93.97
14117;BME280;7137;51.436;6.544;2022-12-10T10:23:03;100679.09;;;1.43;91.73
14117;BME280;7137;51.436;6.544;2022-12-10T10:26:05;100680.66;;;1.15;93.86
14117;BME280;7137;51.436;6.544;2022-12-10T10:29:11;100679.03;;;1.34;92.70
14117;BME280;7137;51.436;6.544;2022-12-10T10:32:17;100670.47;;;1.34;91.79
14117;BME280;7137;51.436;6.544;2022-12-10T10:35:23;100672.31;;;1.67;91.00
14117;BME280;7137;51.436;6.544;2022-12-10T10:38:27;100673.19;;;1.63;92.30
14117;BME280;7137;51.436;6.544;2022-12-10T10:41:35;100676.66;;;1.78;90.69
14117;BME280;7137;51.436;6.544;2022-12-10T10:44:41;100677.47;;;1.59;91.72
14117;BME280;7137;51.436;6.544;2022-12-10T10:47:43;100679.09;;;1.45;91.00
14117;BME280;7137;51.436;6.544;2022-12-10T10:50:47;100671.41;;;1.54;92.44
14117;BME280;7137;51.436;6.544;2022-12-10T10:53:50;100668.06;;;1.73;92.21
14117;BME280;7137;51.436;6.544;2022-12-10T10:56:54;100656.09;;;1.83;91.17
14117;BME280;7137;51.436;6.544;2022-12-10T11:00:06;100666.34;;;1.72;90.09
14117;BME280;7137;51.436;6.544;2022-12-10T11:03:08;100664.69;;;1.85;89.95
14117;BME280;7137;51.436;6.544;2022-12-10T11:06:11;100660.25;;;1.51;90.45
14117;BME280;7137;51.436;6.544;2022-12-10T11:09:18;100664.66;;;1.77;89.82
14117;BME280;7137;51.436;6.544;2022-12-10T11:12:33;100668.06;;;1.75;90.15
14117;BME280;7137;51.436;6.544;2022-12-10T11:15:38;100667.31;;;2.09;89.49
14117;BME280;7137;51.436;6.544;2022-12-10T11:18:43;100661.28;;;2.00;88.27
14117;BME280;7137;51.436;6.544;2022-12-10T11:21:52;100659.56;;;1.99;88.28
14117;BME280;7137;51.436;6.544;2022-12-10T11:24:54;100654.47;;;2.31;88.50
14117;BME280;7137;51.436;6.544;2022-12-10T11:28:00;100665.66;;;2.51;86.63
14117;BME280;7137;51.436;6.544;2022-12-10T11:31:24;100663.06;;;2.36;87.86
14117;BME280;7137;51.436;6.544;2022-12-10T11:34:38;100663.09;;;2.57;87.89
14117;BME280;7137;51.436;6.544;2022-12-10T11:37:49;100657.91;;;2.47;87.18
14117;BME280;7137;51.436;6.544;2022-12-10T11:41:01;100652.78;;;2.57;87.85
14117;BME280;7137;51.436;6.544;2022-12-10T11:44:16;100662.19;;;2.25;87.73
14117;BME280;7137;51.436;6.544;2022-12-10T11:47:31;100657.91;;;2.30;86.54
14117;BME280;7137;51.436;6.544;2022-12-10T11:50:41;100657.03;;;2.23;88.25
14117;BME280;7137;51.436;6.544;2022-12-10T11:54:06;100651.03;;;2.38;87.48
14117;BME280;7137;51.436;6.544;2022-12-10T11:57:17;100649.31;;;2.28;88.75
14117;BME280;7137;51.436;6.544;2022-12-10T12:00:22;100656.19;;;2.49;88.57
14117;BME280;7137;51.436;6.544;2022-12-10T12:03:42;100657.06;;;2.66;87.60
14117;BME280;7137;51.436;6.544;2022-12-10T12:07:10;100661.38;;;2.55;87.52
14117;BME280;7137;51.436;6.544;2022-12-10T12:10:32;100673.41;;;2.68;87.41
14117;BME280;7137;51.436;6.544;2022-12-10T12:13:42;100663.06;;;2.53;87.46
14117;BME280;7137;51.436;6.544;2022-12-10T12:16:52;100658.78;;;2.62;86.65
14117;BME280;7137;51.436;6.544;2022-12-10T12:20:00;100656.19;;;2.67;86.55
14117;BME280;7137;51.436;6.544;2022-12-10T12:23:09;100655.34;;;2.50;86.90
14117;BME280;7137;51.436;6.544;2022-12-10T12:26:16;100656.22;;;2.41;89.28
14117;BME280;7137;51.436;6.544;2022-12-10T12:29:25;100653.59;;;2.53;89.07
14117;BME280;7137;51.436;6.544;2022-12-10T12:32:32;100660.50;;;2.60;89.07
14117;BME280;7137;51.436;6.544;2022-12-10T12:35:41;100661.34;;;2.76;88.39
14117;BME280;7137;51.436;6.544;2022-12-10T12:38:56;100660.50;;;2.59;87.96
14117;BME280;7137;51.436;6.544;2022-12-10T12:42:07;100656.22;;;2.68;88.11
14117;BME280;7137;51.436;6.544;2022-12-10T12:45:14;100654.47;;;2.37;89.30
14117;BME280;7137;51.436;6.544;2022-12-10T12:48:22;100657.09;;;2.54;88.67
14117;BME280;7137;51.436;6.544;2022-12-10T12:51:29;100652.75;;;2.85;87.22
14117;BME280;7137;51.436;6.544;2022-12-10T12:54:33;100657.06;;;2.86;87.34
14117;BME280;7137;51.436;6.544;2022-12-10T12:57:39;100653.63;;;2.65;88.14
14117;BME280;7137;51.436;6.544;2022-12-10T13:00:47;100652.78;;;2.68;88.44
14117;BME280;7137;51.436;6.544;2022-12-10T13:03:50;100663.06;;;2.85;87.01
14117;BME280;7137;51.436;6.544;2022-12-10T13:07:33;100669.97;;;2.74;87.88
14117;BME280;7137;51.436;6.544;2022-12-10T13:10:45;100670.81;;;2.76;88.51
14117;BME280;7137;51.436;6.544;2022-12-10T13:14:12;100667.38;;;2.60;88.52
14117;BME280;7137;51.436;6.544;2022-12-10T13:17:32;100667.34;;;2.81;87.28
14117;BME280;7137;51.436;6.544;2022-12-10T13:20:35;100662.22;;;2.83;87.86
14117;BME280;7137;51.436;6.544;2022-12-10T13:23:50;100671.69;;;2.73;88.18
14117;BME280;7137;51.436;6.544;2022-12-10T13:27:02;100676.81;;;2.78;86.89
14117;BME280;7137;51.436;6.544;2022-12-10T13:30:32;100674.25;;;2.79;87.55
14117;BME280;7137;51.436;6.544;2022-12-10T13:34:04;100675.09;;;2.61;88.68
14117;BME280;7137;51.436;6.544;2022-12-10T13:37:30;100682.00;;;2.68;88.65
14117;BME280;7137;51.436;6.544;2022-12-10T13:40:42;100681.97;;;2.76;88.68
14117;BME280;7137;51.436;6.544;2022-12-10T13:44:01;100683.72;;;2.82;89.28
14117;BME280;7137;51.436;6.544;2022-12-10T13:47:32;100675.97;;;2.56;89.72
14117;BME280;7137;51.436;6.544;2022-12-10T13:50:45;100679.41;;;2.82;87.76
14117;BME280;7137;51.436;6.544;2022-12-10T13:53:59;100682.84;;;2.86;87.75
14117;BME280;7137;51.436;6.544;2022-12-10T13:57:15;100684.56;;;2.90;87.65
14117;BME280;7137;51.436;6.544;2022-12-10T14:00:22;100687.13;;;2.90;87.23
14117;BME280;7137;51.436;6.544;2022-12-10T14:03:50;100696.59;;;2.79;87.35
14117;BME280;7137;51.436;6.544;2022-12-10T14:06:57;100700.03;;;2.78;88.31
14117;BME280;7137;51.436;6.544;2022-12-10T14:10:00;100700.03;;;2.75;88.69
14117;BME280;7137;51.436;6.544;2022-12-10T14:13:05;100701.75;;;2.60;88.24
14117;BME280;7137;51.436;6.544;2022-12-10T14:16:10;100695.72;;;2.29;89.06
14117;BME280;7137;51.436;6.544;2022-12-10T14:19:16;100700.78;;;1.99;90.30
14117;BME280;7137;51.436;6.544;2022-12-10T14:22:24;100699.09;;;2.19;90.09
14117;BME280;7137;51.436;6.544;2022-12-10T14:25:30;100694.84;;;2.36;89.84
14117;BME280;7137;51.436;6.544;2022-12-10T14:28:46;100698.25;;;2.20;90.84
14117;BME280;7137;51.436;6.544;2022-12-10T14:31:49;100692.25;;;2.17;91.13
14117;BME280;7137;51.436;6.544;2022-12-10T14:34:53;100693.97;;;2.37;89.82
14117;BME280;7137;51.436;6.544;2022-12-10T14:37:57;100704.31;;;2.50;89.27
14117;BME280;7137;51.436;6.544;2022-12-10T14:41:00;100707.75;;;2.40;88.30
14117;BME280;7137;51.436;6.544;2022-12-10T14:44:05;100707.75;;;2.41;90.01
14117;BME280;7137;51.436;6.544;2022-12-10T14:47:12;100706.03;;;2.49;90.00
14117;BME280;7137;51.436;6.544;2022-12-10T14:50:16;100706.88;;;2.37;89.66
14117;BME280;7137;51.436;6.544;2022-12-10T14:53:22;100710.28;;;2.24;89.75
14117;BME280;7137;51.436;6.544;2022-12-10T14:56:26;100715.47;;;2.26;89.48
14117;BME280;7137;51.436;6.544;2022-12-10T14:59:36;100708.59;;;2.31;89.89
14117;BME280;7137;51.436;6.544;2022-12-10T15:02:42;100707.72;;;2.35;90.58
14117;BME280;7137;51.436;6.544;2022-12-10T15:05:54;100710.31;;;2.38;90.19
14117;BME280;7137;51.436;6.544;2022-12-10T15:08:57;100713.78;;;2.43;90.51
14117;BME280;7137;51.436;6.544;2022-12-10T15:11:59;100718.91;;;2.35;90.22
14117;BME280;7137;51.436;6.544;2022-12-10T15:15:10;100721.50;;;2.48;89.99
14117;BME280;7137;51.436;6.544;2022-12-10T15:18:16;100723.22;;;2.41;89.91
14117;BME280;7137;51.436;6.544;2022-12-10T15:21:21;100722.34;;;2.34;90.55
14117;BME280;7137;51.436;6.544;2022-12-10T15:24:26;100714.59;;;2.31;89.87
14117;BME280;7137;51.436;6.544;2022-12-10T15:27:28;100709.41;;;2.16;91.12
14117;BME280;7137;51.436;6.544;2022-12-10T15:30:37;100714.53;;;2.07;91.56
14117;BME280;7137;51.436;6.544;2022-12-10T15:33:42;100725.72;;;2.21;91.13
14117;BME280;7137;51.436;6.544;2022-12-10T15:36:49;100717.19;;;2.27;90.97
14117;BME280;7137;51.436;6.544;2022-12-10T15:39:53;100724.06;;;2.34;90.18
14117;BME280;7137;51.436;6.544;2022-12-10T15:42:56;100720.63;;;2.30;90.68
14117;BME280;7137;51.436;6.544;2022-12-10T15:46:17;100721.44;;;2.19;91.33
14117;BME280;7137;51.436;6.544;2022-12-10T15:49:19;100728.34;;;2.38;89.95
14117;BME280;7137;51.436;6.544;2022-12-10T15:52:23;100740.38;;;2.28;90.97
14117;BME280;7137;51.436;6.544;2022-12-10T15:55:25;100739.50;;;2.34;90.18
14117;BME280;7137;51.436;6.544;2022-12-10T15:58:27;100734.28;;;2.11;91.08
14117;BME280;7137;51.436;6.544;2022-12-10T16:01:30;100736.84;;;2.00;92.06
14117;BME280;7137;51.436;6.544;2022-12-10T16:04:31;100742.84;;;2.02;91.83
14117;BME280;7137;51.436;6.544;2022-12-10T16:07:33;100739.47;;;2.13;91.58
14117;BME280;7137;51.436;6.544;2022-12-10T16:10:34;100743.72;;;2.03;91.95
14117;BME280;7137;51.436;6.544;2022-12-10T16:13:36;100741.03;;;1.72;92.49
14117;BME280;7137;51.436;6.544;2022-12-10T16:16:41;100739.44;;;2.11;91.73
14117;BME280;7137;51.436;6.544;2022-12-10T16:19:43;100735.94;;;1.86;92.17
14117;BME280;7137;51.436;6.544;2022-12-10T16:22:45;100738.47;;;1.80;92.66
14117;BME280;7137;51.436;6.544;2022-12-10T16:25:47;100737.66;;;1.86;93.06
14117;BME280;7137;51.436;6.544;2022-12-10T16:28:49;100742.00;;;2.00;92.64
14117;BME280;7137;51.436;6.544;2022-12-10T16:31:52;100740.16;;;1.73;92.25
14117;BME280;7137;51.436;6.544;2022-12-10T16:34:54;100739.41;;;1.97;92.34
14117;BME280;7137;51.436;6.544;2022-12-10T16:37:56;100739.44;;;2.06;92.10
14117;BME280;7137;51.436;6.544;2022-12-10T16:40:59;100739.44;;;2.11;92.53
14117;BME280;7137;51.436;6.544;2022-12-10T16:44:01;100743.72;;;2.06;92.83